sensor_id;sensor_type;location;lat;lon;timestamp;temperature;humidity
10702;DHT22;5402;50.004;8.246;2022-07-29T00:01:31;23.50;76.20
10702;DHT22;5402;50.004;8.246;2022-07-29T00:04:00;23.20;77.40
10702;DHT22;5402;50.004;8.246;2022-07-29T00:06:28;23.10;77.50
10702;DHT22;5402;50.004;8.246;2022-07-29T00:08:59;22.90;79.90
10702;DHT22;5402;50.004;8.246;2022-07-29T00:11:28;22.80;78.50
10702;DHT22;5402;50.004;8.246;2022-07-29T00:15:12;22.80;78.90
10702;DHT22;5402;50.004;8.246;2022-07-29T00:17:17;22.70;79.50
10702;DHT22;5402;50.004;8.246;2022-07-29T00:19:49;22.50;81.30
10702;DHT22;5402;50.004;8.246;2022-07-29T00:22:18;22.70;78.60
10702;DHT22;5402;50.004;8.246;2022-07-29T00:24:51;22.70;79.70
10702;DHT22;5402;50.004;8.246;2022-07-29T00:27:52;22.50;80.80
10702;DHT22;5402;50.004;8.246;2022-07-29T00:30:38;22.30;81.80
10702;DHT22;5402;50.004;8.246;2022-07-29T00:33:35;22.30;81.80
10702;DHT22;5402;50.004;8.246;2022-07-29T00:36:13;22.30;81.50
10702;DHT22;5402;50.004;8.246;2022-07-29T00:38:43;22.30;81.40
10702;DHT22;5402;50.004;8.246;2022-07-29T00:41:25;22.40;79.40
10702;DHT22;5402;50.004;8.246;2022-07-29T00:45:51;22.30;80.60
10702;DHT22;5402;50.004;8.246;2022-07-29T00:47:20;22.20;84.50
10702;DHT22;5402;50.004;8.246;2022-07-29T00:49:50;21.90;90.20
10702;DHT22;5402;50.004;8.246;2022-07-29T00:52:34;21.60;91.60
10702;DHT22;5402;50.004;8.246;2022-07-29T00:55:05;21.20;92.10
10702;DHT22;5402;50.004;8.246;2022-07-29T00:57:44;21.30;92.40
10702;DHT22;5402;50.004;8.246;2022-07-29T01:00:39;21.20;92.30
10702;DHT22;5402;50.004;8.246;2022-07-29T01:03:35;21.00;94.10
10702;DHT22;5402;50.004;8.246;2022-07-29T01:06:25;20.80;94.80
10702;DHT22;5402;50.004;8.246;2022-07-29T01:08:57;20.70;95.20
10702;DHT22;5402;50.004;8.246;2022-07-29T01:11:38;20.70;95.60
10702;DHT22;5402;50.004;8.246;2022-07-29T01:14:13;20.40;95.90
10702;DHT22;5402;50.004;8.246;2022-07-29T01:16:53;20.30;97.40
10702;DHT22;5402;50.004;8.246;2022-07-29T01:19:50;20.00;97.70
10702;DHT22;5402;50.004;8.246;2022-07-29T01:22:47;19.80;98.30
10702;DHT22;5402;50.004;8.246;2022-07-29T01:29:05;19.20;99.90
10702;DHT22;5402;50.004;8.246;2022-07-29T01:31:54;19.30;99.30
10702;DHT22;5402;50.004;8.246;2022-07-29T01:34:40;19.40;99.60
10702;DHT22;5402;50.004;8.246;2022-07-29T01:37:22;19.40;99.70
10702;DHT22;5402;50.004;8.246;2022-07-29T01:39:56;19.40;99.80
10702;DHT22;5402;50.004;8.246;2022-07-29T01:42:50;19.40;99.90
10702;DHT22;5402;50.004;8.246;2022-07-29T01:45:51;19.50;99.90
10702;DHT22;5402;50.004;8.246;2022-07-29T01:48:49;19.30;99.90
10702;DHT22;5402;50.004;8.246;2022-07-29T01:54:34;19.10;99.90
10702;DHT22;5402;50.004;8.246;2022-07-29T01:57:16;19.00;99.90
10702;DHT22;5402;50.004;8.246;2022-07-29T01:59:52;18.90;99.90
10702;DHT22;5402;50.004;8.246;2022-07-29T02:02:30;18.90;99.90
10702;DHT22;5402;50.004;8.246;2022-07-29T02:05:09;18.70;99.90
10702;DHT22;5402;50.004;8.246;2022-07-29T02:07:58;18.70;99.90
10702;DHT22;5402;50.004;8.246;2022-07-29T02:10:38;18.60;99.90
10702;DHT22;5402;50.004;8.246;2022-07-29T02:16:11;18.40;99.90
10702;DHT22;5402;50.004;8.246;2022-07-29T02:18:53;18.30;99.90
10702;DHT22;5402;50.004;8.246;2022-07-29T02:21:30;18.20;99.90
10702;DHT22;5402;50.004;8.246;2022-07-29T02:24:01;18.20;99.90
10702;DHT22;5402;50.004;8.246;2022-07-29T02:26:43;18.00;99.90
10702;DHT22;5402;50.004;8.246;2022-07-29T02:29:19;18.00;99.90
10702;DHT22;5402;50.004;8.246;2022-07-29T02:31:56;17.80;99.90
10702;DHT22;5402;50.004;8.246;2022-07-29T02:34:40;17.80;99.90
10702;DHT22;5402;50.004;8.246;2022-07-29T02:37:39;17.60;99.90
10702;DHT22;5402;50.004;8.246;2022-07-29T02:40:28;17.50;99.90
10702;DHT22;5402;50.004;8.246;2022-07-29T02:45:51;17.60;99.90
10702;DHT22;5402;50.004;8.246;2022-07-29T02:48:32;17.50;99.90
10702;DHT22;5402;50.004;8.246;2022-07-29T02:51:19;17.30;99.90
10702;DHT22;5402;50.004;8.246;2022-07-29T02:54:14;17.50;99.90
10702;DHT22;5402;50.004;8.246;2022-07-29T02:58:47;17.50;99.90
10702;DHT22;5402;50.004;8.246;2022-07-29T03:00:04;17.40;99.90
10702;DHT22;5402;50.004;8.246;2022-07-29T03:02:43;17.50;99.90
10702;DHT22;5402;50.004;8.246;2022-07-29T03:05:18;17.50;99.90
10702;DHT22;5402;50.004;8.246;2022-07-29T03:08:08;17.50;99.90
10702;DHT22;5402;50.004;8.246;2022-07-29T03:10:46;17.50;99.90
10702;DHT22;5402;50.004;8.246;2022-07-29T03:13:22;17.40;99.90
10702;DHT22;5402;50.004;8.246;2022-07-29T03:15:55;17.50;99.90
10702;DHT22;5402;50.004;8.246;2022-07-29T03:18:23;17.50;99.90
10702;DHT22;5402;50.004;8.246;2022-07-29T03:21:00;17.40;99.90
10702;DHT22;5402;50.004;8.246;2022-07-29T03:23:40;17.40;99.90
10702;DHT22;5402;50.004;8.246;2022-07-29T03:26:14;17.40;99.90
10702;DHT22;5402;50.004;8.246;2022-07-29T03:31:55;17.50;99.90
10702;DHT22;5402;50.004;8.246;2022-07-29T03:34:31;17.40;99.90
10702;DHT22;5402;50.004;8.246;2022-07-29T03:36:59;17.30;99.90
10702;DHT22;5402;50.004;8.246;2022-07-29T03:39:41;17.50;99.90
10702;DHT22;5402;50.004;8.246;2022-07-29T03:42:27;17.30;99.90
10702;DHT22;5402;50.004;8.246;2022-07-29T03:45:03;17.40;99.90
10702;DHT22;5402;50.004;8.246;2022-07-29T03:47:52;17.30;99.90
10702;DHT22;5402;50.004;8.246;2022-07-29T03:50:26;17.20;99.90
10702;DHT22;5402;50.004;8.246;2022-07-29T03:55:21;17.20;99.90
10702;DHT22;5402;50.004;8.246;2022-07-29T03:56:15;16.90;99.90
10702;DHT22;5402;50.004;8.246;2022-07-29T03:58:52;17.00;99.90
10702;DHT22;5402;50.004;8.246;2022-07-29T04:04:41;16.90;99.90
10702;DHT22;5402;50.004;8.246;2022-07-29T04:07:27;16.80;99.90
10702;DHT22;5402;50.004;8.246;2022-07-29T04:10:47;16.80;99.90
10702;DHT22;5402;50.004;8.246;2022-07-29T04:13:32;16.90;99.90
10702;DHT22;5402;50.004;8.246;2022-07-29T04:16:38;16.70;99.90
10702;DHT22;5402;50.004;8.246;2022-07-29T04:19:19;16.70;99.90
10702;DHT22;5402;50.004;8.246;2022-07-29T04:21:50;16.80;99.90
10702;DHT22;5402;50.004;8.246;2022-07-29T04:24:33;16.70;99.90
10702;DHT22;5402;50.004;8.246;2022-07-29T04:27:03;16.80;99.90
10702;DHT22;5402;50.004;8.246;2022-07-29T04:29:47;16.80;99.90
10702;DHT22;5402;50.004;8.246;2022-07-29T04:32:26;16.80;99.90
10702;DHT22;5402;50.004;8.246;2022-07-29T04:35:23;16.80;99.90
10702;DHT22;5402;50.004;8.246;2022-07-29T04:41:33;16.90;99.90
10702;DHT22;5402;50.004;8.246;2022-07-29T04:44:05;17.00;99.90
10702;DHT22;5402;50.004;8.246;2022-07-29T04:49:43;17.20;99.90
10702;DHT22;5402;50.004;8.246;2022-07-29T04:52:10;17.40;99.90
10702;DHT22;5402;50.004;8.246;2022-07-29T04:54:37;17.60;99.90
10702;DHT22;5402;50.004;8.246;2022-07-29T04:57:06;17.60;99.90
10702;DHT22;5402;50.004;8.246;2022-07-29T04:59:39;18.00;99.90
10702;DHT22;5402;50.004;8.246;2022-07-29T05:02:07;17.90;99.90
10702;DHT22;5402;50.004;8.246;2022-07-29T05:04:43;18.10;99.90
10702;DHT22;5402;50.004;8.246;2022-07-29T05:07:19;18.30;99.90
10702;DHT22;5402;50.004;8.246;2022-07-29T05:09:52;18.20;99.90
10702;DHT22;5402;50.004;8.246;2022-07-29T05:12:24;18.20;99.90
10702;DHT22;5402;50.004;8.246;2022-07-29T05:14:54;18.30;99.90
10702;DHT22;5402;50.004;8.246;2022-07-29T05:17:25;18.50;99.90
10702;DHT22;5402;50.004;8.246;2022-07-29T05:19:53;18.60;99.90
10702;DHT22;5402;50.004;8.246;2022-07-29T05:22:20;18.70;99.90
10702;DHT22;5402;50.004;8.246;2022-07-29T05:24:50;18.70;99.90
10702;DHT22;5402;50.004;8.246;2022-07-29T05:27:17;18.70;99.90
10702;DHT22;5402;50.004;8.246;2022-07-29T05:29:48;18.70;99.90
10702;DHT22;5402;50.004;8.246;2022-07-29T05:32:25;18.80;99.90
10702;DHT22;5402;50.004;8.246;2022-07-29T05:34:59;18.90;99.90
10702;DHT22;5402;50.004;8.246;2022-07-29T05:38:09;19.00;99.90
10702;DHT22;5402;50.004;8.246;2022-07-29T05:40:50;19.00;99.90
10702;DHT22;5402;50.004;8.246;2022-07-29T05:43:20;19.00;99.90
10702;DHT22;5402;50.004;8.246;2022-07-29T05:46:06;19.20;99.90
10702;DHT22;5402;50.004;8.246;2022-07-29T05:48:33;19.30;99.90
10702;DHT22;5402;50.004;8.246;2022-07-29T05:51:10;19.30;99.90
10702;DHT22;5402;50.004;8.246;2022-07-29T05:53:56;19.40;99.90
10702;DHT22;5402;50.004;8.246;2022-07-29T05:56:23;19.50;99.90
10702;DHT22;5402;50.004;8.246;2022-07-29T05:59:20;19.70;99.90
10702;DHT22;5402;50.004;8.246;2022-07-29T06:01:48;19.80;99.90
10702;DHT22;5402;50.004;8.246;2022-07-29T06:04:17;19.80;99.90
10702;DHT22;5402;50.004;8.246;2022-07-29T06:06:47;19.90;99.90
10702;DHT22;5402;50.004;8.246;2022-07-29T06:09:30;20.00;99.90
10702;DHT22;5402;50.004;8.246;2022-07-29T06:11:59;19.70;99.90
10702;DHT22;5402;50.004;8.246;2022-07-29T06:14:47;19.90;99.90
10702;DHT22;5402;50.004;8.246;2022-07-29T06:20:56;20.30;99.90
10702;DHT22;5402;50.004;8.246;2022-07-29T06:23:28;20.30;99.90
10702;DHT22;5402;50.004;8.246;2022-07-29T06:26:19;20.40;99.90
10702;DHT22;5402;50.004;8.246;2022-07-29T06:29:19;20.40;99.90
10702;DHT22;5402;50.004;8.246;2022-07-29T06:32:17;20.60;99.90
10702;DHT22;5402;50.004;8.246;2022-07-29T06:35:11;20.70;99.90
10702;DHT22;5402;50.004;8.246;2022-07-29T06:40:54;21.20;99.90
10702;DHT22;5402;50.004;8.246;2022-07-29T06:43:35;21.30;99.90
10702;DHT22;5402;50.004;8.246;2022-07-29T06:46:06;21.40;99.90
10702;DHT22;5402;50.004;8.246;2022-07-29T06:48:53;21.50;99.90
10702;DHT22;5402;50.004;8.246;2022-07-29T06:51:27;21.70;99.90
10702;DHT22;5402;50.004;8.246;2022-07-29T06:54:00;21.70;99.20
10702;DHT22;5402;50.004;8.246;2022-07-29T06:56:32;21.80;99.50
10702;DHT22;5402;50.004;8.246;2022-07-29T06:59:00;21.80;98.60
10702;DHT22;5402;50.004;8.246;2022-07-29T07:01:28;21.90;98.20
10702;DHT22;5402;50.004;8.246;2022-07-29T07:03:59;21.90;98.30
10702;DHT22;5402;50.004;8.246;2022-07-29T07:06:34;22.20;97.20
10702;DHT22;5402;50.004;8.246;2022-07-29T07:09:04;22.20;97.10
10702;DHT22;5402;50.004;8.246;2022-07-29T07:11:34;22.40;96.20
10702;DHT22;5402;50.004;8.246;2022-07-29T07:14:04;22.40;95.20
10702;DHT22;5402;50.004;8.246;2022-07-29T07:16:33;22.50;95.10
10702;DHT22;5402;50.004;8.246;2022-07-29T07:19:01;22.80;92.90
10702;DHT22;5402;50.004;8.246;2022-07-29T07:21:28;22.90;92.90
10702;DHT22;5402;50.004;8.246;2022-07-29T07:25:34;23.00;92.70
10702;DHT22;5402;50.004;8.246;2022-07-29T07:28:05;22.90;92.40
10702;DHT22;5402;50.004;8.246;2022-07-29T07:30:40;23.00;91.90
10702;DHT22;5402;50.004;8.246;2022-07-29T07:33:49;23.00;92.00
10702;DHT22;5402;50.004;8.246;2022-07-29T07:36:07;22.90;93.50
10702;DHT22;5402;50.004;8.246;2022-07-29T07:38:38;23.10;92.10
10702;DHT22;5402;50.004;8.246;2022-07-29T07:41:07;23.20;90.60
10702;DHT22;5402;50.004;8.246;2022-07-29T07:43:34;23.10;90.70
10702;DHT22;5402;50.004;8.246;2022-07-29T07:46:01;23.30;91.00
10702;DHT22;5402;50.004;8.246;2022-07-29T07:48:29;23.30;90.70
10702;DHT22;5402;50.004;8.246;2022-07-29T07:51:00;23.30;91.00
10702;DHT22;5402;50.004;8.246;2022-07-29T07:53:33;23.40;90.90
10702;DHT22;5402;50.004;8.246;2022-07-29T07:56:00;23.50;90.10
10702;DHT22;5402;50.004;8.246;2022-07-29T07:58:28;23.60;90.10
10702;DHT22;5402;50.004;8.246;2022-07-29T08:00:57;23.70;89.40
10702;DHT22;5402;50.004;8.246;2022-07-29T08:03:27;23.90;88.30
10702;DHT22;5402;50.004;8.246;2022-07-29T08:06:04;23.90;89.20
10702;DHT22;5402;50.004;8.246;2022-07-29T08:08:32;24.10;88.60
10702;DHT22;5402;50.004;8.246;2022-07-29T08:11:03;24.00;88.50
10702;DHT22;5402;50.004;8.246;2022-07-29T08:13:32;24.00;88.50
10702;DHT22;5402;50.004;8.246;2022-07-29T08:15:59;24.00;88.60
10702;DHT22;5402;50.004;8.246;2022-07-29T08:18:53;24.00;90.10
10702;DHT22;5402;50.004;8.246;2022-07-29T08:21:48;24.20;87.90
10702;DHT22;5402;50.004;8.246;2022-07-29T08:24:22;24.40;86.90
10702;DHT22;5402;50.004;8.246;2022-07-29T08:27:08;24.50;87.40
10702;DHT22;5402;50.004;8.246;2022-07-29T08:29:35;24.80;86.20
10702;DHT22;5402;50.004;8.246;2022-07-29T08:32:21;24.80;85.90
10702;DHT22;5402;50.004;8.246;2022-07-29T08:34:50;24.90;85.50
10702;DHT22;5402;50.004;8.246;2022-07-29T08:37:17;25.10;86.00
10702;DHT22;5402;50.004;8.246;2022-07-29T08:39:53;25.20;84.70
10702;DHT22;5402;50.004;8.246;2022-07-29T08:42:21;25.30;84.90
10702;DHT22;5402;50.004;8.246;2022-07-29T08:44:53;25.30;85.90
10702;DHT22;5402;50.004;8.246;2022-07-29T08:47:23;25.50;83.70
10702;DHT22;5402;50.004;8.246;2022-07-29T08:49:53;25.50;84.20
10702;DHT22;5402;50.004;8.246;2022-07-29T08:52:33;25.50;83.30
10702;DHT22;5402;50.004;8.246;2022-07-29T08:55:09;25.90;82.50
10702;DHT22;5402;50.004;8.246;2022-07-29T08:57:41;25.90;82.60
10702;DHT22;5402;50.004;8.246;2022-07-29T09:00:17;25.80;81.70
10702;DHT22;5402;50.004;8.246;2022-07-29T09:02:57;25.90;82.00
10702;DHT22;5402;50.004;8.246;2022-07-29T09:05:34;26.10;82.10
10702;DHT22;5402;50.004;8.246;2022-07-29T09:08:01;26.10;82.00
10702;DHT22;5402;50.004;8.246;2022-07-29T09:10:36;26.20;81.50
10702;DHT22;5402;50.004;8.246;2022-07-29T09:13:05;26.30;81.10
10702;DHT22;5402;50.004;8.246;2022-07-29T09:15:32;26.70;81.50
10702;DHT22;5402;50.004;8.246;2022-07-29T09:18:01;26.70;80.30
10702;DHT22;5402;50.004;8.246;2022-07-29T09:23:11;26.90;79.50
10702;DHT22;5402;50.004;8.246;2022-07-29T09:24:13;26.90;80.10
10702;DHT22;5402;50.004;8.246;2022-07-29T09:26:56;26.90;80.00
10702;DHT22;5402;50.004;8.246;2022-07-29T09:29:27;27.00;79.60
10702;DHT22;5402;50.004;8.246;2022-07-29T09:32:06;27.20;79.80
10702;DHT22;5402;50.004;8.246;2022-07-29T09:34:36;27.20;79.00
10702;DHT22;5402;50.004;8.246;2022-07-29T09:37:05;27.10;79.60
10702;DHT22;5402;50.004;8.246;2022-07-29T09:39:35;27.20;80.30
10702;DHT22;5402;50.004;8.246;2022-07-29T09:42:05;27.40;78.20
10702;DHT22;5402;50.004;8.246;2022-07-29T09:44:46;27.50;78.10
10702;DHT22;5402;50.004;8.246;2022-07-29T09:47:40;27.40;78.80
10702;DHT22;5402;50.004;8.246;2022-07-29T09:50:10;27.30;78.20
10702;DHT22;5402;50.004;8.246;2022-07-29T09:53:29;27.20;80.70
10702;DHT22;5402;50.004;8.246;2022-07-29T09:56:00;26.90;82.20
10702;DHT22;5402;50.004;8.246;2022-07-29T09:58:41;26.80;79.70
10702;DHT22;5402;50.004;8.246;2022-07-29T10:01:12;26.80;79.70
10702;DHT22;5402;50.004;8.246;2022-07-29T10:03:59;26.70;80.30
10702;DHT22;5402;50.004;8.246;2022-07-29T10:06:27;26.90;80.80
10702;DHT22;5402;50.004;8.246;2022-07-29T10:09:08;27.20;81.70
10702;DHT22;5402;50.004;8.246;2022-07-29T10:12:13;27.30;80.40
10702;DHT22;5402;50.004;8.246;2022-07-29T10:14:58;27.60;79.20
10702;DHT22;5402;50.004;8.246;2022-07-29T10:17:32;27.90;80.30
10702;DHT22;5402;50.004;8.246;2022-07-29T10:20:10;28.10;78.90
10702;DHT22;5402;50.004;8.246;2022-07-29T10:22:40;28.00;78.90
10702;DHT22;5402;50.004;8.246;2022-07-29T10:25:18;27.80;80.00
10702;DHT22;5402;50.004;8.246;2022-07-29T10:27:49;27.70;81.90
10702;DHT22;5402;50.004;8.246;2022-07-29T10:30:26;27.60;81.50
10702;DHT22;5402;50.004;8.246;2022-07-29T10:33:15;27.90;79.80
10702;DHT22;5402;50.004;8.246;2022-07-29T10:35:53;27.90;78.70
10702;DHT22;5402;50.004;8.246;2022-07-29T10:38:41;27.60;79.80
10702;DHT22;5402;50.004;8.246;2022-07-29T10:44:29;28.30;79.70
10702;DHT22;5402;50.004;8.246;2022-07-29T10:47:02;28.40;78.70
10702;DHT22;5402;50.004;8.246;2022-07-29T10:49:55;28.50;78.50
10702;DHT22;5402;50.004;8.246;2022-07-29T10:52:24;28.40;79.00
10702;DHT22;5402;50.004;8.246;2022-07-29T10:55:30;28.30;80.60
10702;DHT22;5402;50.004;8.246;2022-07-29T10:58:17;28.10;80.40
10702;DHT22;5402;50.004;8.246;2022-07-29T11:00:57;28.50;82.00
10702;DHT22;5402;50.004;8.246;2022-07-29T11:07:12;28.20;79.00
10702;DHT22;5402;50.004;8.246;2022-07-29T11:09:41;28.00;80.20
10702;DHT22;5402;50.004;8.246;2022-07-29T11:16:57;28.00;79.70
10702;DHT22;5402;50.004;8.246;2022-07-29T11:18:20;28.20;79.50
10702;DHT22;5402;50.004;8.246;2022-07-29T11:20:58;28.50;79.20
10702;DHT22;5402;50.004;8.246;2022-07-29T11:23:53;28.40;79.00
10702;DHT22;5402;50.004;8.246;2022-07-29T11:26:48;28.30;79.90
10702;DHT22;5402;50.004;8.246;2022-07-29T11:34:41;28.70;81.80
10702;DHT22;5402;50.004;8.246;2022-07-29T11:36:08;28.80;78.70
10702;DHT22;5402;50.004;8.246;2022-07-29T11:38:43;29.00;79.90
10702;DHT22;5402;50.004;8.246;2022-07-29T11:41:44;29.10;79.10
10702;DHT22;5402;50.004;8.246;2022-07-29T11:47:32;29.20;78.80
10702;DHT22;5402;50.004;8.246;2022-07-29T11:50:05;29.30;77.60
10702;DHT22;5402;50.004;8.246;2022-07-29T11:52:35;29.40;77.10
10702;DHT22;5402;50.004;8.246;2022-07-29T11:55:14;29.20;77.60
10702;DHT22;5402;50.004;8.246;2022-07-29T11:58:02;29.10;78.00
10702;DHT22;5402;50.004;8.246;2022-07-29T12:00:33;29.30;79.90
10702;DHT22;5402;50.004;8.246;2022-07-29T12:03:05;29.40;78.90
10702;DHT22;5402;50.004;8.246;2022-07-29T12:05:45;29.60;77.70
10702;DHT22;5402;50.004;8.246;2022-07-29T12:08:21;29.50;77.00
10702;DHT22;5402;50.004;8.246;2022-07-29T12:11:14;29.50;75.20
10702;DHT22;5402;50.004;8.246;2022-07-29T12:13:52;29.30;76.10
10702;DHT22;5402;50.004;8.246;2022-07-29T12:17:08;29.00;76.10
10702;DHT22;5402;50.004;8.246;2022-07-29T12:19:45;29.00;78.40
10702;DHT22;5402;50.004;8.246;2022-07-29T12:22:15;29.50;78.70
10702;DHT22;5402;50.004;8.246;2022-07-29T12:24:54;29.60;76.00
10702;DHT22;5402;50.004;8.246;2022-07-29T12:27:26;30.10;74.40
10702;DHT22;5402;50.004;8.246;2022-07-29T12:30:33;30.40;75.70
10702;DHT22;5402;50.004;8.246;2022-07-29T12:33:16;30.90;75.40
10702;DHT22;5402;50.004;8.246;2022-07-29T12:36:00;31.40;73.40
10702;DHT22;5402;50.004;8.246;2022-07-29T12:39:19;31.90;71.90
10702;DHT22;5402;50.004;8.246;2022-07-29T12:42:11;31.70;69.20
10702;DHT22;5402;50.004;8.246;2022-07-29T12:47:29;31.60;68.60
10702;DHT22;5402;50.004;8.246;2022-07-29T12:50:11;31.40;69.00
10702;DHT22;5402;50.004;8.246;2022-07-29T12:52:44;30.60;70.00
10702;DHT22;5402;50.004;8.246;2022-07-29T12:55:39;30.20;71.40
10702;DHT22;5402;50.004;8.246;2022-07-29T12:58:10;29.90;72.00
10702;DHT22;5402;50.004;8.246;2022-07-29T13:00:37;29.70;72.00
10702;DHT22;5402;50.004;8.246;2022-07-29T13:03:06;29.60;72.90
10702;DHT22;5402;50.004;8.246;2022-07-29T13:06:00;29.80;75.10
10702;DHT22;5402;50.004;8.246;2022-07-29T13:08:29;29.60;73.40
10702;DHT22;5402;50.004;8.246;2022-07-29T13:11:01;29.60;73.60
10702;DHT22;5402;50.004;8.246;2022-07-29T13:13:28;29.70;73.60
10702;DHT22;5402;50.004;8.246;2022-07-29T13:16:06;29.50;75.20
10702;DHT22;5402;50.004;8.246;2022-07-29T13:19:05;29.20;76.60
10702;DHT22;5402;50.004;8.246;2022-07-29T13:21:32;29.10;75.30
10702;DHT22;5402;50.004;8.246;2022-07-29T13:24:01;29.10;75.50
10702;DHT22;5402;50.004;8.246;2022-07-29T13:26:43;29.00;74.80
10702;DHT22;5402;50.004;8.246;2022-07-29T13:29:12;28.70;78.90
10702;DHT22;5402;50.004;8.246;2022-07-29T13:31:47;28.70;78.60
10702;DHT22;5402;50.004;8.246;2022-07-29T13:34:20;28.50;79.00
10702;DHT22;5402;50.004;8.246;2022-07-29T13:37:00;28.60;79.60
10702;DHT22;5402;50.004;8.246;2022-07-29T13:39:34;28.40;79.60
10702;DHT22;5402;50.004;8.246;2022-07-29T13:42:05;28.30;79.40
10702;DHT22;5402;50.004;8.246;2022-07-29T13:44:32;28.20;79.60
10702;DHT22;5402;50.004;8.246;2022-07-29T13:47:10;28.20;80.20
10702;DHT22;5402;50.004;8.246;2022-07-29T13:49:46;28.10;80.40
10702;DHT22;5402;50.004;8.246;2022-07-29T13:52:19;27.90;80.60
10702;DHT22;5402;50.004;8.246;2022-07-29T13:54:48;27.90;80.60
10702;DHT22;5402;50.004;8.246;2022-07-29T13:57:20;27.90;80.70
10702;DHT22;5402;50.004;8.246;2022-07-29T13:59:47;27.90;80.20
10702;DHT22;5402;50.004;8.246;2022-07-29T14:02:17;28.00;80.50
10702;DHT22;5402;50.004;8.246;2022-07-29T14:04:46;28.10;81.40
10702;DHT22;5402;50.004;8.246;2022-07-29T14:07:18;28.10;82.50
10702;DHT22;5402;50.004;8.246;2022-07-29T14:09:45;27.80;82.60
10702;DHT22;5402;50.004;8.246;2022-07-29T14:12:34;27.70;82.70
10702;DHT22;5402;50.004;8.246;2022-07-29T14:15:16;27.60;81.70
10702;DHT22;5402;50.004;8.246;2022-07-29T14:17:52;27.60;82.20
10702;DHT22;5402;50.004;8.246;2022-07-29T14:20:23;27.50;81.90
10702;DHT22;5402;50.004;8.246;2022-07-29T14:22:50;27.50;81.70
10702;DHT22;5402;50.004;8.246;2022-07-29T14:25:34;27.40;81.60
10702;DHT22;5402;50.004;8.246;2022-07-29T14:28:11;27.40;81.40
10702;DHT22;5402;50.004;8.246;2022-07-29T14:30:47;27.50;81.00
10702;DHT22;5402;50.004;8.246;2022-07-29T14:33:34;27.50;80.60
10702;DHT22;5402;50.004;8.246;2022-07-29T14:36:04;27.60;81.20
10702;DHT22;5402;50.004;8.246;2022-07-29T14:38:48;27.60;81.60
10702;DHT22;5402;50.004;8.246;2022-07-29T14:41:20;27.70;81.80
10702;DHT22;5402;50.004;8.246;2022-07-29T14:43:55;27.70;81.50
10702;DHT22;5402;50.004;8.246;2022-07-29T14:46:28;27.80;80.20
10702;DHT22;5402;50.004;8.246;2022-07-29T14:49:03;27.90;80.60
10702;DHT22;5402;50.004;8.246;2022-07-29T14:51:36;28.00;81.10
10702;DHT22;5402;50.004;8.246;2022-07-29T14:54:13;27.90;80.70
10702;DHT22;5402;50.004;8.246;2022-07-29T14:56:44;28.10;81.10
10702;DHT22;5402;50.004;8.246;2022-07-29T14:59:16;27.80;81.20
10702;DHT22;5402;50.004;8.246;2022-07-29T15:01:49;27.60;82.30
10702;DHT22;5402;50.004;8.246;2022-07-29T15:04:26;27.30;87.80
10702;DHT22;5402;50.004;8.246;2022-07-29T15:07:24;26.80;90.60
10702;DHT22;5402;50.004;8.246;2022-07-29T15:09:52;26.40;93.40
10702;DHT22;5402;50.004;8.246;2022-07-29T15:12:23;25.60;96.60
10702;DHT22;5402;50.004;8.246;2022-07-29T15:15:32;24.60;98.00
10702;DHT22;5402;50.004;8.246;2022-07-29T15:18:02;23.70;97.30
10702;DHT22;5402;50.004;8.246;2022-07-29T15:20:58;23.10;97.10
10702;DHT22;5402;50.004;8.246;2022-07-29T15:23:29;22.90;97.50
10702;DHT22;5402;50.004;8.246;2022-07-29T15:26:06;22.90;97.70
10702;DHT22;5402;50.004;8.246;2022-07-29T15:42:53;18.90;99.90
10702;DHT22;5402;50.004;8.246;2022-07-29T16:19:36;21.10;99.90
10702;DHT22;5402;50.004;8.246;2022-07-29T16:22:09;21.10;99.90
10702;DHT22;5402;50.004;8.246;2022-07-29T16:24:39;21.20;99.90
10702;DHT22;5402;50.004;8.246;2022-07-29T16:27:06;21.20;99.90
10702;DHT22;5402;50.004;8.246;2022-07-29T16:29:56;21.10;99.90
10702;DHT22;5402;50.004;8.246;2022-07-29T16:32:28;21.00;99.90
10702;DHT22;5402;50.004;8.246;2022-07-29T16:38:15;20.60;99.90
10702;DHT22;5402;50.004;8.246;2022-07-29T16:40:44;20.30;99.90
10702;DHT22;5402;50.004;8.246;2022-07-29T16:43:12;20.40;99.90
10702;DHT22;5402;50.004;8.246;2022-07-29T16:45:54;20.50;99.90
10702;DHT22;5402;50.004;8.246;2022-07-29T16:48:22;20.40;99.90
10702;DHT22;5402;50.004;8.246;2022-07-29T16:51:17;20.40;99.90
10702;DHT22;5402;50.004;8.246;2022-07-29T16:54:17;20.20;99.90
10702;DHT22;5402;50.004;8.246;2022-07-29T16:57:00;20.20;99.90
10702;DHT22;5402;50.004;8.246;2022-07-29T16:59:50;20.00;99.90
10702;DHT22;5402;50.004;8.246;2022-07-29T17:02:53;20.00;99.90
10702;DHT22;5402;50.004;8.246;2022-07-29T17:05:40;19.70;99.90
10702;DHT22;5402;50.004;8.246;2022-07-29T17:08:08;19.60;99.90
10702;DHT22;5402;50.004;8.246;2022-07-29T17:10:51;19.30;99.90
10702;DHT22;5402;50.004;8.246;2022-07-29T17:13:25;19.30;99.90
10702;DHT22;5402;50.004;8.246;2022-07-29T17:15:54;19.50;99.90
10702;DHT22;5402;50.004;8.246;2022-07-29T17:18:35;19.30;99.90
10702;DHT22;5402;50.004;8.246;2022-07-29T17:21:16;19.60;99.90
10702;DHT22;5402;50.004;8.246;2022-07-29T17:23:44;19.40;99.90
10702;DHT22;5402;50.004;8.246;2022-07-29T17:26:28;19.20;99.90
10702;DHT22;5402;50.004;8.246;2022-07-29T17:29:17;19.40;99.90
10702;DHT22;5402;50.004;8.246;2022-07-29T17:31:52;19.40;99.90
10702;DHT22;5402;50.004;8.246;2022-07-29T17:34:41;19.90;99.90
10702;DHT22;5402;50.004;8.246;2022-07-29T17:37:19;20.00;99.90
10702;DHT22;5402;50.004;8.246;2022-07-29T17:39:56;20.20;99.90
10702;DHT22;5402;50.004;8.246;2022-07-29T17:42:36;19.90;99.90
10702;DHT22;5402;50.004;8.246;2022-07-29T18:05:19;19.60;99.90
10702;DHT22;5402;50.004;8.246;2022-07-29T18:08:24;19.70;99.90
10702;DHT22;5402;50.004;8.246;2022-07-29T19:17:58;19.50;99.90
10702;DHT22;5402;50.004;8.246;2022-07-29T19:21:56;19.60;99.90
10702;DHT22;5402;50.004;8.246;2022-07-29T19:27:48;19.50;99.90
10702;DHT22;5402;50.004;8.246;2022-07-29T19:48:20;19.30;99.90
10702;DHT22;5402;50.004;8.246;2022-07-29T19:52:38;19.40;99.90
10702;DHT22;5402;50.004;8.246;2022-07-29T19:57:48;19.50;99.90
10702;DHT22;5402;50.004;8.246;2022-07-29T20:07:16;19.40;99.90
10702;DHT22;5402;50.004;8.246;2022-07-29T20:12:25;19.60;99.90
10702;DHT22;5402;50.004;8.246;2022-07-29T20:14:52;19.50;99.90
10702;DHT22;5402;50.004;8.246;2022-07-29T20:17:19;19.40;99.90
10702;DHT22;5402;50.004;8.246;2022-07-29T20:19:48;19.50;99.90
10702;DHT22;5402;50.004;8.246;2022-07-29T20:22:19;19.60;99.90
10702;DHT22;5402;50.004;8.246;2022-07-29T20:24:46;19.60;99.90
10702;DHT22;5402;50.004;8.246;2022-07-29T20:27:17;19.60;99.90
10702;DHT22;5402;50.004;8.246;2022-07-29T20:29:44;19.50;99.90
10702;DHT22;5402;50.004;8.246;2022-07-29T20:32:14;19.50;99.90
10702;DHT22;5402;50.004;8.246;2022-07-29T20:34:41;19.50;99.90
10702;DHT22;5402;50.004;8.246;2022-07-29T20:37:09;19.50;99.90
10702;DHT22;5402;50.004;8.246;2022-07-29T20:39:53;19.50;99.90
10702;DHT22;5402;50.004;8.246;2022-07-29T20:42:21;19.40;99.90
10702;DHT22;5402;50.004;8.246;2022-07-29T20:44:48;19.50;99.90